sensor_id;sensor_type;location;lat;lon;timestamp;pressure;altitude;pressure_sealevel;temperature;humidity
76297;BME280;65104;52.994;6.552;2023-09-18T00:00:16;100849.75;;;16.72;100.00
76297;BME280;65104;52.994;6.552;2023-09-18T00:02:42;100845.44;;;16.73;100.00
76297;BME280;65104;52.994;6.552;2023-09-18T00:05:08;100838.53;;;16.72;100.00
76297;BME280;65104;52.994;6.552;2023-09-18T00:07:33;100826.44;;;16.69;100.00
76297;BME280;65104;52.994;6.552;2023-09-18T00:09:59;100821.31;;;16.62;100.00
76297;BME280;65104;52.994;6.552;2023-09-18T00:12:24;100815.22;;;16.64;100.00
76297;BME280;65104;52.994;6.552;2023-09-18T00:14:50;100798.84;;;16.64;100.00
76297;BME280;65104;52.994;6.552;2023-09-18T00:17:15;100782.41;;;16.57;100.00
76297;BME280;65104;52.994;6.552;2023-09-18T00:19:42;100774.63;;;16.59;100.00
76297;BME280;65104;52.994;6.552;2023-09-18T00:22:07;100760.78;;;16.57;100.00
76297;BME280;65104;52.994;6.552;2023-09-18T00:24:33;100753.06;;;16.55;100.00
76297;BME280;65104;52.994;6.552;2023-09-18T00:26:59;100736.66;;;16.51;100.00
76297;BME280;65104;52.994;6.552;2023-09-18T00:29:24;100737.50;;;16.52;100.00
76297;BME280;65104;52.994;6.552;2023-09-18T00:31:50;100731.41;;;16.56;100.00
76297;BME280;65104;52.994;6.552;2023-09-18T00:34:15;100715.00;;;16.57;100.00
76297;BME280;65104;52.994;6.552;2023-09-18T00:36:40;100718.44;;;16.61;100.00
76297;BME280;65104;52.994;6.552;2023-09-18T00:39:06;100712.41;;;16.62;100.00
76297;BME280;65104;52.994;6.552;2023-09-18T00:41:31;100710.63;;;16.67;100.00
76297;BME280;65104;52.994;6.552;2023-09-18T00:43:57;100704.56;;;16.69;100.00
76297;BME280;65104;52.994;6.552;2023-09-18T00:46:23;100697.66;;;16.67;100.00
76297;BME280;65104;52.994;6.552;2023-09-18T00:48:49;100687.28;;;16.68;100.00
76297;BME280;65104;52.994;6.552;2023-09-18T00:51:16;100680.31;;;16.73;100.00
76297;BME280;65104;52.994;6.552;2023-09-18T00:53:46;100678.56;;;16.75;100.00
76297;BME280;65104;52.994;6.552;2023-09-18T00:56:14;100669.03;;;16.80;100.00
76297;BME280;65104;52.994;6.552;2023-09-18T00:58:40;100658.69;;;16.79;100.00
76297;BME280;65104;52.994;6.552;2023-09-18T01:01:05;100654.38;;;16.78;100.00
76297;BME280;65104;52.994;6.552;2023-09-18T01:03:31;100653.50;;;16.79;100.00
76297;BME280;65104;52.994;6.552;2023-09-18T01:05:57;100637.94;;;16.76;100.00
76297;BME280;65104;52.994;6.552;2023-09-18T01:08:22;100635.38;;;16.74;100.00
76297;BME280;65104;52.994;6.552;2023-09-18T01:16:34;100625.88;;;16.73;100.00
76297;BME280;65104;52.994;6.552;2023-09-18T01:19:00;100633.59;;;16.79;100.00
76297;BME280;65104;52.994;6.552;2023-09-18T01:21:28;100634.47;;;16.81;100.00
76297;BME280;65104;52.994;6.552;2023-09-18T01:23:53;100630.13;;;16.80;100.00
76297;BME280;65104;52.994;6.552;2023-09-18T01:26:18;100626.63;;;16.83;100.00
76297;BME280;65104;52.994;6.552;2023-09-18T01:28:44;100631.81;;;16.83;100.00
76297;BME280;65104;52.994;6.552;2023-09-18T01:31:09;100625.81;;;16.81;100.00
76297;BME280;65104;52.994;6.552;2023-09-18T01:33:35;100628.41;;;16.79;100.00
76297;BME280;65104;52.994;6.552;2023-09-18T01:36:02;100631.88;;;16.81;100.00
76297;BME280;65104;52.994;6.552;2023-09-18T01:38:28;100625.81;;;16.81;100.00
76297;BME280;65104;52.994;6.552;2023-09-18T01:40:54;100616.31;;;16.81;100.00
76297;BME280;65104;52.994;6.552;2023-09-18T01:43:20;100612.78;;;16.87;100.00
76297;BME280;65104;52.994;6.552;2023-09-18T01:45:45;100605.78;;;16.94;100.00
76297;BME280;65104;52.994;6.552;2023-09-18T01:48:11;100606.59;;;16.99;100.00
76297;BME280;65104;52.994;6.552;2023-09-18T01:50:37;100605.72;;;17.00;100.00
76297;BME280;65104;52.994;6.552;2023-09-18T01:53:05;100606.63;;;16.97;100.00
76297;BME280;65104;52.994;6.552;2023-09-18T01:55:30;100599.63;;;17.01;100.00
76297;BME280;65104;52.994;6.552;2023-09-18T01:57:58;100601.31;;;17.06;100.00
76297;BME280;65104;52.994;6.552;2023-09-18T02:00:23;100592.69;;;17.03;100.00
76297;BME280;65104;52.994;6.552;2023-09-18T02:02:49;100591.75;;;17.10;100.00
76297;BME280;65104;52.994;6.552;2023-09-18T02:05:14;100579.63;;;17.10;100.00
76297;BME280;65104;52.994;6.552;2023-09-18T02:07:39;100580.50;;;17.11;100.00
76297;BME280;65104;52.994;6.552;2023-09-18T02:10:05;100572.72;;;17.11;100.00
76297;BME280;65104;52.994;6.552;2023-09-18T02:12:31;100571.00;;;17.10;100.00
76297;BME280;65104;52.994;6.552;2023-09-18T02:14:56;100564.94;;;17.09;100.00
76297;BME280;65104;52.994;6.552;2023-09-18T02:17:23;100566.63;;;17.15;100.00
76297;BME280;65104;52.994;6.552;2023-09-18T02:19:49;100558.00;;;17.11;100.00
76297;BME280;65104;52.994;6.552;2023-09-18T02:22:14;100560.63;;;17.10;100.00
76297;BME280;65104;52.994;6.552;2023-09-18T02:24:39;100555.41;;;17.13;100.00
76297;BME280;65104;52.994;6.552;2023-09-18T02:27:05;100540.69;;;17.13;100.00
76297;BME280;65104;52.994;6.552;2023-09-18T02:29:31;100540.66;;;17.16;100.00
76297;BME280;65104;52.994;6.552;2023-09-18T02:31:56;100544.13;;;17.15;100.00
76297;BME280;65104;52.994;6.552;2023-09-18T02:34:22;100532.81;;;17.21;100.00
76297;BME280;65104;52.994;6.552;2023-09-18T02:36:47;100531.91;;;17.25;100.00
76297;BME280;65104;52.994;6.552;2023-09-18T02:39:12;100518.09;;;17.23;100.00
76297;BME280;65104;52.994;6.552;2023-09-18T02:41:38;100522.31;;;17.30;100.00
76297;BME280;65104;52.994;6.552;2023-09-18T02:44:03;100511.06;;;17.28;100.00
76297;BME280;65104;52.994;6.552;2023-09-18T02:46:29;100511.06;;;17.30;100.00
76297;BME280;65104;52.994;6.552;2023-09-18T02:48:55;100506.69;;;17.33;100.00
76297;BME280;65104;52.994;6.552;2023-09-18T02:51:20;100500.66;;;17.33;100.00
76297;BME280;65104;52.994;6.552;2023-09-18T02:53:45;100503.25;;;17.31;100.00
76297;BME280;65104;52.994;6.552;2023-09-18T02:56:11;100495.47;;;17.31;100.00
76297;BME280;65104;52.994;6.552;2023-09-18T02:58:36;100486.84;;;17.29;100.00
76297;BME280;65104;52.994;6.552;2023-09-18T03:01:02;100485.09;;;17.30;100.00
76297;BME280;65104;52.994;6.552;2023-09-18T03:03:29;100479.06;;;17.29;100.00
76297;BME280;65104;52.994;6.552;2023-09-18T03:06:03;100481.63;;;17.31;100.00
76297;BME280;65104;52.994;6.552;2023-09-18T03:08:29;100475.56;;;17.33;100.00
76297;BME280;65104;52.994;6.552;2023-09-18T03:10:54;100471.22;;;17.34;100.00
76297;BME280;65104;52.994;6.552;2023-09-18T03:13:19;100466.94;;;17.31;100.00
76297;BME280;65104;52.994;6.552;2023-09-18T03:15:45;100451.34;;;17.33;100.00
76297;BME280;65104;52.994;6.552;2023-09-18T03:18:13;100444.31;;;17.39;100.00
76297;BME280;65104;52.994;6.552;2023-09-18T03:20:39;100432.22;;;17.38;100.00
76297;BME280;65104;52.994;6.552;2023-09-18T03:23:05;100436.50;;;17.41;100.00
76297;BME280;65104;52.994;6.552;2023-09-18T03:25:30;100427.00;;;17.38;100.00
76297;BME280;65104;52.994;6.552;2023-09-18T03:27:56;100425.28;;;17.37;100.00
76297;BME280;65104;52.994;6.552;2023-09-18T03:30:23;100423.53;;;17.39;100.00
76297;BME280;65104;52.994;6.552;2023-09-18T03:32:49;100409.72;;;17.37;100.00
76297;BME280;65104;52.994;6.552;2023-09-18T03:35:15;100406.28;;;17.37;100.00
76297;BME280;65104;52.994;6.552;2023-09-18T03:37:53;100397.59;;;17.38;100.00
76297;BME280;65104;52.994;6.552;2023-09-18T03:40:22;100386.38;;;17.37;100.00
76297;BME280;65104;52.994;6.552;2023-09-18T03:42:47;100377.78;;;17.35;100.00
76297;BME280;65104;52.994;6.552;2023-09-18T03:45:14;100382.13;;;17.33;100.00
76297;BME280;65104;52.994;6.552;2023-09-18T03:47:40;100365.69;;;17.33;100.00
76297;BME280;65104;52.994;6.552;2023-09-18T03:50:10;100361.28;;;17.36;100.00
76297;BME280;65104;52.994;6.552;2023-09-18T03:52:36;100353.50;;;17.36;100.00
76297;BME280;65104;52.994;6.552;2023-09-18T03:55:02;100349.16;;;17.37;100.00
76297;BME280;65104;52.994;6.552;2023-09-18T03:57:27;100344.03;;;17.35;100.00
76297;BME280;65104;52.994;6.552;2023-09-18T03:59:53;100335.28;;;17.41;100.00
76297;BME280;65104;52.994;6.552;2023-09-18T04:02:19;100317.97;;;17.41;100.00
76297;BME280;65104;52.994;6.552;2023-09-18T04:04:44;100307.53;;;17.44;100.00
76297;BME280;65104;52.994;6.552;2023-09-18T04:07:09;100285.00;;;17.45;100.00
76297;BME280;65104;52.994;6.552;2023-09-18T04:09:35;100280.63;;;17.48;100.00
76297;BME280;65104;52.994;6.552;2023-09-18T04:12:01;100283.19;;;17.50;100.00
76297;BME280;65104;52.994;6.552;2023-09-18T04:14:27;100279.75;;;17.49;100.00
76297;BME280;65104;52.994;6.552;2023-09-18T04:16:52;100277.97;;;17.51;100.00
76297;BME280;65104;52.994;6.552;2023-09-18T04:19:17;100275.41;;;17.50;100.00
76297;BME280;65104;52.994;6.552;2023-09-18T04:21:43;100269.34;;;17.49;100.00
76297;BME280;65104;52.994;6.552;2023-09-18T04:24:08;100261.63;;;17.45;100.00
76297;BME280;65104;52.994;6.552;2023-09-18T04:26:33;100252.13;;;17.45;100.00
76297;BME280;65104;52.994;6.552;2023-09-18T04:29:00;100266.81;;;17.46;100.00
76297;BME280;65104;52.994;6.552;2023-09-18T04:31:26;100258.16;;;17.46;100.00
76297;BME280;65104;52.994;6.552;2023-09-18T04:33:52;100258.16;;;17.46;100.00
76297;BME280;65104;52.994;6.552;2023-09-18T04:36:18;100254.59;;;17.53;100.00
76297;BME280;65104;52.994;6.552;2023-09-18T04:38:44;100257.13;;;17.54;100.00
76297;BME280;65104;52.994;6.552;2023-09-18T04:41:09;100246.72;;;17.56;100.00
76297;BME280;65104;52.994;6.552;2023-09-18T04:43:36;100250.09;;;17.61;100.00
76297;BME280;65104;52.994;6.552;2023-09-18T04:46:03;100250.97;;;17.61;100.00
76297;BME280;65104;52.994;6.552;2023-09-18T04:48:30;100235.38;;;17.61;100.00
76297;BME280;65104;52.994;6.552;2023-09-18T04:50:56;100234.44;;;17.66;100.00
76297;BME280;65104;52.994;6.552;2023-09-18T04:53:22;100224.06;;;17.66;100.00
76297;BME280;65104;52.994;6.552;2023-09-18T04:55:47;100220.50;;;17.71;100.00
76297;BME280;65104;52.994;6.552;2023-09-18T04:58:15;100215.25;;;17.73;100.00
76297;BME280;65104;52.994;6.552;2023-09-18T05:00:40;100212.63;;;17.74;100.00
76297;BME280;65104;52.994;6.552;2023-09-18T05:03:07;100206.56;;;17.75;100.00
76297;BME280;65104;52.994;6.552;2023-09-18T05:05:34;100198.78;;;17.75;100.00
76297;BME280;65104;52.994;6.552;2023-09-18T05:08:01;100207.44;;;17.74;100.00
76297;BME280;65104;52.994;6.552;2023-09-18T05:10:28;100193.59;;;17.74;100.00
76297;BME280;65104;52.994;6.552;2023-09-18T05:12:53;100181.44;;;17.76;100.00
76297;BME280;65104;52.994;6.552;2023-09-18T05:15:26;100183.09;;;17.80;100.00
76297;BME280;65104;52.994;6.552;2023-09-18T05:17:54;100190.03;;;17.79;100.00
76297;BME280;65104;52.994;6.552;2023-09-18T05:20:22;100185.72;;;17.78;100.00
76297;BME280;65104;52.994;6.552;2023-09-18T05:22:50;100200.38;;;17.81;100.00
76297;BME280;65104;52.994;6.552;2023-09-18T05:25:15;100201.19;;;17.83;100.00
76297;BME280;65104;52.994;6.552;2023-09-18T05:27:41;100201.22;;;17.81;100.00
76297;BME280;65104;52.994;6.552;2023-09-18T05:32:36;100181.28;;;17.83;100.00
76297;BME280;65104;52.994;6.552;2023-09-18T05:35:01;100177.81;;;17.84;100.00
76297;BME280;65104;52.994;6.552;2023-09-18T05:37:31;100184.59;;;17.90;100.00
76297;BME280;65104;52.994;6.552;2023-09-18T05:39:56;100187.16;;;17.91;100.00
76297;BME280;65104;52.994;6.552;2023-09-18T05:42:22;100194.06;;;17.92;100.00
76297;BME280;65104;52.994;6.552;2023-09-18T05:44:47;100177.63;;;17.92;100.00
76297;BME280;65104;52.994;6.552;2023-09-18T05:47:13;100182.78;;;17.95;100.00
76297;BME280;65104;52.994;6.552;2023-09-18T05:49:38;100178.41;;;17.97;100.00
76297;BME280;65104;52.994;6.552;2023-09-18T05:52:03;100177.47;;;17.99;100.00
76297;BME280;65104;52.994;6.552;2023-09-18T05:54:29;100196.44;;;18.03;100.00
76297;BME280;65104;52.994;6.552;2023-09-18T05:56:54;100176.50;;;18.05;100.00
76297;BME280;65104;52.994;6.552;2023-09-18T05:59:19;100167.81;;;18.06;100.00
76297;BME280;65104;52.994;6.552;2023-09-18T06:01:45;100179.91;;;18.07;100.00
76297;BME280;65104;52.994;6.552;2023-09-18T06:04:10;100177.34;;;18.06;100.00
76297;BME280;65104;52.994;6.552;2023-09-18T06:06:37;100190.31;;;18.07;100.00
76297;BME280;65104;52.994;6.552;2023-09-18T06:09:03;100185.94;;;18.08;100.00
76297;BME280;65104;52.994;6.552;2023-09-18T06:11:28;100195.53;;;18.06;100.00
76297;BME280;65104;52.994;6.552;2023-09-18T06:13:54;100201.50;;;18.09;100.00
76297;BME280;65104;52.994;6.552;2023-09-18T06:16:19;100205.72;;;18.15;100.00
76297;BME280;65104;52.994;6.552;2023-09-18T06:18:45;100202.13;;;18.20;100.00
76297;BME280;65104;52.994;6.552;2023-09-18T06:21:10;100208.13;;;18.24;100.00
76297;BME280;65104;52.994;6.552;2023-09-18T06:23:35;100198.47;;;18.27;100.00
76297;BME280;65104;52.994;6.552;2023-09-18T06:26:01;100186.25;;;18.32;100.00
76297;BME280;65104;52.994;6.552;2023-09-18T06:28:26;100199.16;;;18.35;100.00
76297;BME280;65104;52.994;6.552;2023-09-18T06:30:52;100203.34;;;18.43;100.00
76297;BME280;65104;52.994;6.552;2023-09-18T06:33:19;100204.13;;;18.45;100.00
76297;BME280;65104;52.994;6.552;2023-09-18T06:35:44;100190.28;;;18.44;100.00
76297;BME280;65104;52.994;6.552;2023-09-18T06:38:10;100177.34;;;18.43;100.00
76297;BME280;65104;52.994;6.552;2023-09-18T06:40:38;100187.75;;;18.43;100.00
76297;BME280;65104;52.994;6.552;2023-09-18T06:43:04;100185.09;;;18.44;100.00
76297;BME280;65104;52.994;6.552;2023-09-18T06:45:29;100192.84;;;18.46;100.00
76297;BME280;65104;52.994;6.552;2023-09-18T06:47:55;100194.56;;;18.47;100.00
76297;BME280;65104;52.994;6.552;2023-09-18T06:50:20;100185.81;;;18.51;100.00
76297;BME280;65104;52.994;6.552;2023-09-18T06:52:46;100184.97;;;18.50;100.00
76297;BME280;65104;52.994;6.552;2023-09-18T06:55:11;100180.72;;;18.46;100.00
76297;BME280;65104;52.994;6.552;2023-09-18T06:57:37;100187.53;;;18.52;100.00
76297;BME280;65104;52.994;6.552;2023-09-18T07:00:03;100200.47;;;18.53;100.00
76297;BME280;65104;52.994;6.552;2023-09-18T07:02:30;100241.28;;;18.51;100.00
76297;BME280;65104;52.994;6.552;2023-09-18T07:04:55;100253.31;;;18.54;100.00
76297;BME280;65104;52.994;6.552;2023-09-18T07:07:21;100244.63;;;18.55;100.00
76297;BME280;65104;52.994;6.552;2023-09-18T07:09:53;100224.84;;;18.49;100.00
76297;BME280;65104;52.994;6.552;2023-09-18T07:12:18;100219.66;;;18.49;100.00
76297;BME280;65104;52.994;6.552;2023-09-18T07:14:45;100214.34;;;18.52;100.00
76297;BME280;65104;52.994;6.552;2023-09-18T07:17:10;100256.03;;;18.49;100.00
76297;BME280;65104;52.994;6.552;2023-09-18T07:19:36;100246.78;;;18.37;100.00
76297;BME280;65104;52.994;6.552;2023-09-18T07:22:01;100214.75;;;18.35;100.00
76297;BME280;65104;52.994;6.552;2023-09-18T07:24:27;100196.66;;;18.32;100.00
76297;BME280;65104;52.994;6.552;2023-09-18T07:26:52;100199.28;;;18.31;100.00
76297;BME280;65104;52.994;6.552;2023-09-18T07:29:18;100207.16;;;18.26;100.00
76297;BME280;65104;52.994;6.552;2023-09-18T07:31:44;100202.75;;;18.30;100.00
76297;BME280;65104;52.994;6.552;2023-09-18T07:34:10;100208.81;;;18.30;100.00
76297;BME280;65104;52.994;6.552;2023-09-18T07:36:36;100204.50;;;18.29;100.00
76297;BME280;65104;52.994;6.552;2023-09-18T07:39:02;100207.03;;;18.32;100.00
76297;BME280;65104;52.994;6.552;2023-09-18T07:41:29;100217.41;;;18.34;100.00
76297;BME280;65104;52.994;6.552;2023-09-18T07:43:55;100226.03;;;18.34;100.00
76297;BME280;65104;52.994;6.552;2023-09-18T07:46:22;100213.00;;;18.36;100.00
76297;BME280;65104;52.994;6.552;2023-09-18T07:48:47;100212.81;;;18.44;100.00
76297;BME280;65104;52.994;6.552;2023-09-18T07:51:13;100209.34;;;18.45;100.00
76297;BME280;65104;52.994;6.552;2023-09-18T07:53:39;100208.44;;;18.46;100.00
76297;BME280;65104;52.994;6.552;2023-09-18T07:56:05;100216.22;;;18.47;100.00
76297;BME280;65104;52.994;6.552;2023-09-18T07:58:31;100216.22;;;18.47;100.00
76297;BME280;65104;52.994;6.552;2023-09-18T08:00:58;100226.63;;;18.47;100.00
76297;BME280;65104;52.994;6.552;2023-09-18T08:03:24;100231.66;;;18.53;100.00
76297;BME280;65104;52.994;6.552;2023-09-18T08:05:51;100215.22;;;18.53;100.00
76297;BME280;65104;52.994;6.552;2023-09-18T08:08:17;100224.72;;;18.54;100.00
76297;BME280;65104;52.994;6.552;2023-09-18T08:10:42;100217.88;;;18.51;100.00
76297;BME280;65104;52.994;6.552;2023-09-18T08:13:08;100219.56;;;18.52;100.00
76297;BME280;65104;52.994;6.552;2023-09-18T08:15:34;100217.06;;;18.49;100.00
76297;BME280;65104;52.994;6.552;2023-09-18T08:17:59;100229.13;;;18.52;100.00
76297;BME280;65104;52.994;6.552;2023-09-18T08:20:26;100231.72;;;18.52;100.00
76297;BME280;65104;52.994;6.552;2023-09-18T08:22:51;100240.41;;;18.51;100.00
76297;BME280;65104;52.994;6.552;2023-09-18T08:25:17;100231.75;;;18.50;100.00
76297;BME280;65104;52.994;6.552;2023-09-18T08:27:42;100230.09;;;18.46;100.00
76297;BME280;65104;52.994;6.552;2023-09-18T08:30:10;100233.47;;;18.51;100.00
76297;BME280;65104;52.994;6.552;2023-09-18T08:32:37;100240.34;;;18.52;100.00
76297;BME280;65104;52.994;6.552;2023-09-18T08:35:03;100237.50;;;18.64;100.00
76297;BME280;65104;52.994;6.552;2023-09-18T08:37:28;100233.97;;;18.68;100.00
76297;BME280;65104;52.994;6.552;2023-09-18T08:39:54;100225.22;;;18.71;100.00
76297;BME280;65104;52.994;6.552;2023-09-18T08:42:20;100245.00;;;18.78;100.00
76297;BME280;65104;52.994;6.552;2023-09-18T08:44:49;100252.63;;;18.84;100.00
76297;BME280;65104;52.994;6.552;2023-09-18T08:47:17;100230.94;;;18.85;100.00
76297;BME280;65104;52.994;6.552;2023-09-18T08:49:45;100247.28;;;18.90;100.00
76297;BME280;65104;52.994;6.552;2023-09-18T08:52:12;100259.34;;;18.94;100.00
76297;BME280;65104;52.994;6.552;2023-09-18T08:54:40;100254.84;;;18.99;100.00
76297;BME280;65104;52.994;6.552;2023-09-18T08:57:05;100259.41;;;18.91;100.00
76297;BME280;65104;52.994;6.552;2023-09-18T08:59:34;100262.03;;;18.90;100.00
76297;BME280;65104;52.994;6.552;2023-09-18T09:02:00;100262.88;;;18.90;100.00
76297;BME280;65104;52.994;6.552;2023-09-18T09:04:26;100257.69;;;18.90;100.00
76297;BME280;65104;52.994;6.552;2023-09-18T09:06:52;100251.59;;;18.91;100.00
76297;BME280;65104;52.994;6.552;2023-09-18T09:09:17;100259.38;;;18.93;100.00
76297;BME280;65104;52.994;6.552;2023-09-18T09:11:51;100262.97;;;18.87;100.00
76297;BME280;65104;52.994;6.552;2023-09-18T09:14:16;100253.38;;;18.89;100.00
76297;BME280;65104;52.994;6.552;2023-09-18T09:16:54;100250.63;;;18.95;100.00
76297;BME280;65104;52.994;6.552;2023-09-18T09:19:40;100246.13;;;19.02;100.00
76297;BME280;65104;52.994;6.552;2023-09-18T09:22:07;100236.50;;;19.05;100.00
76297;BME280;65104;52.994;6.552;2023-09-18T09:24:43;100243.22;;;19.14;100.00
76297;BME280;65104;52.994;6.552;2023-09-18T09:27:09;100254.22;;;19.24;100.00
76297;BME280;65104;52.994;6.552;2023-09-18T09:29:36;100251.53;;;19.27;100.00
76297;BME280;65104;52.994;6.552;2023-09-18T09:32:16;100248.63;;;19.39;100.00
76297;BME280;65104;52.994;6.552;2023-09-18T09:34:42;100242.34;;;19.46;100.00
76297;BME280;65104;52.994;6.552;2023-09-18T09:37:08;100251.88;;;19.48;100.00
76297;BME280;65104;52.994;6.552;2023-09-18T09:39:34;100259.66;;;19.50;100.00
76297;BME280;65104;52.994;6.552;2023-09-18T09:42:01;100256.81;;;19.59;100.00
76297;BME280;65104;52.994;6.552;2023-09-18T09:44:29;100261.00;;;19.63;100.00
76297;BME280;65104;52.994;6.552;2023-09-18T09:46:59;100254.09;;;19.62;100.00
76297;BME280;65104;52.994;6.552;2023-09-18T09:49:24;100259.94;;;19.70;100.00
76297;BME280;65104;52.994;6.552;2023-09-18T09:51:53;100261.47;;;19.77;100.00
76297;BME280;65104;52.994;6.552;2023-09-18T09:54:32;100258.72;;;19.83;100.00
76297;BME280;65104;52.994;6.552;2023-09-18T09:57:02;100265.44;;;19.91;100.00
76297;BME280;65104;52.994;6.552;2023-09-18T09:59:28;100258.41;;;19.94;100.00
76297;BME280;65104;52.994;6.552;2023-09-18T10:01:55;100255.19;;;20.14;100.00
76297;BME280;65104;52.994;6.552;2023-09-18T10:04:22;100249.69;;;20.23;100.00
76297;BME280;65104;52.994;6.552;2023-09-18T10:06:52;100264.69;;;20.46;100.00
76297;BME280;65104;52.994;6.552;2023-09-18T10:09:22;100254.91;;;20.52;100.00
76297;BME280;65104;52.994;6.552;2023-09-18T10:11:52;100249.69;;;20.52;100.00
76297;BME280;65104;52.994;6.552;2023-09-18T10:14:19;100268.47;;;20.64;100.00
76297;BME280;65104;52.994;6.552;2023-09-18T10:16:49;100262.81;;;20.49;100.00
76297;BME280;65104;52.994;6.552;2023-09-18T10:20:00;100274.69;;;20.59;100.00
76297;BME280;65104;52.994;6.552;2023-09-18T10:22:48;100273.25;;;20.49;100.00
76297;BME280;65104;52.994;6.552;2023-09-18T10:25:18;100275.47;;;20.63;100.00
76297;BME280;65104;52.994;6.552;2023-09-18T10:27:47;100275.84;;;20.77;100.00
76297;BME280;65104;52.994;6.552;2023-09-18T10:30:20;100270.38;;;20.85;100.00
76297;BME280;65104;52.994;6.552;2023-09-18T10:32:48;100278.16;;;20.86;100.00
76297;BME280;65104;52.994;6.552;2023-09-18T10:35:15;100275.94;;;21.02;100.00
76297;BME280;65104;52.994;6.552;2023-09-18T10:37:45;100273.97;;;21.09;100.00
76297;BME280;65104;52.994;6.552;2023-09-18T10:40:12;100269.66;;;21.08;100.00
76297;BME280;65104;52.994;6.552;2023-09-18T10:42:39;100267.41;;;21.23;100.00
76297;BME280;65104;52.994;6.552;2023-09-18T10:45:07;100266.09;;;21.37;100.00
76297;BME280;65104;52.994;6.552;2023-09-18T10:47:37;100270.28;;;21.14;100.00
76297;BME280;65104;52.994;6.552;2023-09-18T10:50:03;100270.72;;;21.28;100.00
76297;BME280;65104;52.994;6.552;2023-09-18T10:52:30;100270.41;;;21.38;100.00
76297;BME280;65104;52.994;6.552;2023-09-18T10:54:55;100282.72;;;21.34;100.00
76297;BME280;65104;52.994;6.552;2023-09-18T10:57:21;100287.28;;;21.27;100.00
76297;BME280;65104;52.994;6.552;2023-09-18T10:59:47;100286.84;;;21.40;100.00
76297;BME280;65104;52.994;6.552;2023-09-18T11:02:16;100293.16;;;21.34;100.00
76297;BME280;65104;52.994;6.552;2023-09-18T11:04:43;100281.53;;;21.18;100.00
76297;BME280;65104;52.994;6.552;2023-09-18T11:07:19;100289.75;;;21.04;100.00
76297;BME280;65104;52.994;6.552;2023-09-18T11:09:45;100295.38;;;20.93;100.00
76297;BME280;65104;52.994;6.552;2023-09-18T11:12:11;100303.19;;;20.93;100.00
76297;BME280;65104;52.994;6.552;2023-09-18T11:20:18;100300.00;;;20.57;100.00
76297;BME280;65104;52.994;6.552;2023-09-18T11:28:01;100290.44;;;21.37;100.00
76297;BME280;65104;52.994;6.552;2023-09-18T11:30:28;100276.72;;;21.80;100.00
76297;BME280;65104;52.994;6.552;2023-09-18T11:32:54;100279.53;;;22.22;100.00
76297;BME280;65104;52.994;6.552;2023-09-18T11:35:21;100270.44;;;22.09;100.00
76297;BME280;65104;52.994;6.552;2023-09-18T11:37:47;100261.38;;;21.71;100.00
76297;BME280;65104;52.994;6.552;2023-09-18T11:40:29;100274.69;;;21.39;100.00
76297;BME280;65104;52.994;6.552;2023-09-18T11:45:43;100281.75;;;21.10;100.00
76297;BME280;65104;52.994;6.552;2023-09-18T11:48:09;100276.41;;;20.87;100.00
76297;BME280;65104;52.994;6.552;2023-09-18T11:50:37;100288.66;;;20.85;100.00
76297;BME280;65104;52.994;6.552;2023-09-18T11:53:05;100276.63;;;21.33;100.00
76297;BME280;65104;52.994;6.552;2023-09-18T11:55:31;100270.69;;;21.78;100.00
76297;BME280;65104;52.994;6.552;2023-09-18T11:57:58;100263.09;;;22.19;100.00
76297;BME280;65104;52.994;6.552;2023-09-18T12:00:26;100263.09;;;22.19;100.00
76297;BME280;65104;52.994;6.552;2023-09-18T12:02:54;100262.28;;;21.93;100.00
76297;BME280;65104;52.994;6.552;2023-09-18T12:05:20;100249.00;;;22.23;100.00
76297;BME280;65104;52.994;6.552;2023-09-18T12:07:47;100257.94;;;22.39;100.00
76297;BME280;65104;52.994;6.552;2023-09-18T12:10:15;100255.63;;;22.31;100.00
76297;BME280;65104;52.994;6.552;2023-09-18T12:12:42;100259.44;;;22.23;100.00
76297;BME280;65104;52.994;6.552;2023-09-18T12:15:12;100264.28;;;22.10;100.00
76297;BME280;65104;52.994;6.552;2023-09-18T12:17:38;100273.97;;;22.53;100.00
76297;BME280;65104;52.994;6.552;2023-09-18T12:20:03;100263.13;;;22.40;100.00
76297;BME280;65104;52.994;6.552;2023-09-18T12:22:30;100251.56;;;22.24;100.00
76297;BME280;65104;52.994;6.552;2023-09-18T12:25:14;100267.63;;;22.59;100.00
76297;BME280;65104;52.994;6.552;2023-09-18T12:27:43;100266.97;;;22.54;100.00
76297;BME280;65104;52.994;6.552;2023-09-18T12:30:09;100275.44;;;22.37;100.00
76297;BME280;65104;52.994;6.552;2023-09-18T12:32:36;100280.31;;;22.46;100.00
76297;BME280;65104;52.994;6.552;2023-09-18T12:35:02;100278.75;;;22.42;100.00
76297;BME280;65104;52.994;6.552;2023-09-18T12:37:34;100275.78;;;22.51;100.00
76297;BME280;65104;52.994;6.552;2023-09-18T12:40:00;100266.78;;;22.36;100.00
76297;BME280;65104;52.994;6.552;2023-09-18T12:42:26;100266.13;;;22.75;100.00
76297;BME280;65104;52.994;6.552;2023-09-18T12:44:52;100263.22;;;23.03;100.00
76297;BME280;65104;52.994;6.552;2023-09-18T12:47:19;100254.41;;;23.26;100.00
76297;BME280;65104;52.994;6.552;2023-09-18T12:49:45;100258.00;;;23.03;100.00
76297;BME280;65104;52.994;6.552;2023-09-18T12:52:12;100247.41;;;23.06;100.00
76297;BME280;65104;52.994;6.552;2023-09-18T12:54:43;100238.16;;;23.17;100.00
76297;BME280;65104;52.994;6.552;2023-09-18T12:57:19;100241.09;;;23.10;100.00
76297;BME280;65104;52.994;6.552;2023-09-18T12:59:44;100240.44;;;22.85;100.00